createdAt,value
2022-08-20T00:02:16.501Z,19.29
2022-08-20T00:04:45.165Z,19.30
2022-08-20T00:07:16.047Z,19.30
2022-08-20T00:09:44.996Z,19.35
2022-08-20T00:12:19.604Z,19.27
2022-08-20T00:14:47.865Z,19.19
2022-08-20T00:17:16.496Z,19.18
2022-08-20T00:19:44.695Z,19.14
2022-08-20T00:22:13.638Z,19.05
2022-08-20T00:24:41.808Z,19.03
2022-08-20T00:27:10.101Z,19.00
2022-08-20T00:29:39.283Z,18.95
2022-08-20T00:32:07.660Z,18.97
2022-08-20T00:34:35.873Z,19.01
2022-08-20T00:37:04.352Z,19.04
2022-08-20T00:39:35.573Z,19.08
2022-08-20T00:42:03.952Z,19.08
2022-08-20T00:44:32.347Z,19.11
2022-08-20T00:47:01.827Z,19.13
2022-08-20T00:49:32.544Z,19.08
2022-08-20T00:52:14.255Z,19.05
2022-08-20T00:54:44.702Z,19.04
2022-08-20T00:57:17.745Z,18.99
2022-08-20T00:59:46.239Z,18.95
2022-08-20T01:02:17.774Z,18.97
2022-08-20T01:04:55.126Z,18.94
2022-08-20T01:07:35.099Z,19.08
2022-08-20T01:10:07.912Z,19.17
2022-08-20T01:12:37.664Z,19.23
2022-08-20T01:15:10.064Z,19.16
2022-08-20T01:17:44.258Z,19.21
2022-08-20T01:20:52.541Z,19.17
2022-08-20T01:23:41.690Z,19.10
2022-08-20T01:26:21.211Z,19.09
2022-08-20T01:28:58.658Z,19.05
2022-08-20T01:31:29.930Z,18.95
2022-08-20T01:34:00.532Z,18.99
2022-08-20T01:36:37.338Z,19.06
2022-08-20T01:39:09.615Z,19.06
2022-08-20T01:41:50.259Z,19.07
2022-08-20T01:44:20.206Z,19.00
2022-08-20T01:46:51.005Z,18.99
2022-08-20T01:49:23.489Z,18.92
2022-08-20T01:51:54.521Z,18.83
2022-08-20T01:54:24.228Z,18.81
2022-08-20T01:57:07.099Z,18.74
2022-08-20T01:59:35.354Z,18.76
2022-08-20T02:02:04.583Z,18.83
2022-08-20T02:04:33.252Z,18.65
2022-08-20T02:07:04.302Z,18.60
2022-08-20T02:09:39.397Z,18.57
2022-08-20T02:12:09.773Z,18.57
2022-08-20T02:14:48.331Z,18.58
2022-08-20T02:17:18.212Z,18.51
2022-08-20T02:19:50.891Z,18.49
2022-08-20T02:22:45.764Z,18.58
2022-08-20T02:25:23.061Z,18.61
2022-08-20T02:27:53.884Z,18.72
2022-08-20T02:30:29.989Z,18.73
2022-08-20T02:32:59.962Z,18.69
2022-08-20T02:35:28.725Z,18.63
2022-08-20T02:37:57.327Z,18.58
2022-08-20T02:40:31.003Z,18.55
2022-08-20T02:43:00.928Z,18.49
2022-08-20T02:45:31.923Z,18.54
2022-08-20T02:48:00.076Z,18.57
2022-08-20T02:50:28.847Z,18.56
2022-08-20T02:52:57.421Z,18.57
2022-08-20T02:55:27.610Z,18.59
2022-08-20T02:58:01.147Z,18.61
2022-08-20T03:00:38.454Z,18.61
2022-08-20T03:03:09.417Z,18.68
2022-08-20T03:05:41.198Z,18.65
2022-08-20T03:08:12.422Z,18.59
2022-08-20T03:10:42.857Z,18.54
2022-08-20T03:13:12.493Z,18.53
2022-08-20T03:15:45.037Z,18.53
2022-08-20T03:18:14.456Z,18.59
2022-08-20T03:20:43.975Z,18.67
2022-08-20T03:23:16.051Z,18.69
2022-08-20T03:25:45.311Z,18.75
2022-08-20T03:28:19.283Z,18.76
2022-08-20T03:30:48.011Z,18.44
2022-08-20T03:33:16.467Z,18.31
2022-08-20T03:35:44.710Z,18.25
2022-08-20T03:38:15.162Z,18.22
2022-08-20T03:40:43.995Z,18.28
2022-08-20T03:43:12.727Z,18.42
2022-08-20T03:45:43.936Z,18.47
2022-08-20T03:48:16.543Z,18.46
2022-08-20T03:50:45.734Z,18.46
2022-08-20T03:53:15.657Z,18.52
2022-08-20T03:55:54.042Z,18.57
2022-08-20T03:58:34.589Z,18.48
2022-08-20T04:01:06.684Z,18.49
2022-08-20T04:03:35.573Z,18.43
2022-08-20T04:06:04.064Z,18.43
2022-08-20T04:08:32.320Z,18.47
2022-08-20T04:11:00.576Z,18.49
2022-08-20T04:13:31.188Z,18.52
2022-08-20T04:16:02.282Z,18.50
2022-08-20T04:18:31.020Z,18.51
2022-08-20T04:20:59.215Z,18.53
2022-08-20T04:23:27.490Z,18.59
2022-08-20T04:25:56.517Z,18.57
2022-08-20T04:28:27.045Z,18.40
2022-08-20T04:30:57.800Z,18.28
2022-08-20T04:33:35.531Z,18.41
2022-08-20T04:36:06.227Z,18.40
2022-08-20T04:38:50.701Z,18.36
2022-08-20T04:41:23.438Z,18.33
2022-08-20T04:43:54.519Z,18.32
2022-08-20T04:46:26.761Z,18.29
2022-08-20T04:48:56.665Z,18.29
2022-08-20T04:51:24.849Z,18.37
2022-08-20T04:53:57.425Z,18.46
2022-08-20T04:56:29.331Z,18.50
2022-08-20T04:59:00.780Z,18.54
2022-08-20T05:01:29.822Z,18.64
2022-08-20T05:04:00.848Z,18.69
2022-08-20T05:06:31.729Z,18.60
2022-08-20T05:09:01.121Z,18.70
2022-08-20T05:11:35.525Z,18.71
2022-08-20T05:14:06.169Z,18.85
2022-08-20T05:16:38.462Z,18.91
2022-08-20T05:19:13.873Z,18.96
2022-08-20T05:21:42.047Z,18.98
2022-08-20T05:24:11.599Z,18.99
2022-08-20T05:26:40.355Z,19.08
2022-08-20T05:29:10.311Z,19.19
2022-08-20T05:31:39.361Z,19.33
2022-08-20T05:34:12.539Z,19.41
2022-08-20T05:36:50.723Z,19.50
2022-08-20T05:39:20.957Z,19.64
2022-08-20T05:41:52.122Z,19.71
2022-08-20T05:44:20.822Z,19.81
2022-08-20T05:46:49.077Z,19.93
2022-08-20T05:49:20.263Z,20.11
2022-08-20T05:51:50.964Z,20.31
2022-08-20T05:54:19.316Z,20.51
2022-08-20T05:56:47.744Z,20.70
2022-08-20T05:59:17.588Z,21.02
2022-08-20T06:01:47.258Z,21.11
2022-08-20T06:04:24.596Z,21.04
2022-08-20T06:06:55.722Z,20.95
2022-08-20T06:09:31.017Z,20.70
2022-08-20T06:12:02.910Z,20.54
2022-08-20T06:14:31.875Z,20.55
2022-08-20T06:17:05.277Z,20.60
2022-08-20T06:19:34.524Z,20.73
2022-08-20T06:22:08.724Z,20.99
2022-08-20T06:24:47.975Z,21.22
2022-08-20T06:27:17.258Z,21.47
2022-08-20T06:29:46.474Z,21.67
2022-08-20T06:32:14.908Z,21.91
2022-08-20T06:34:50.141Z,22.16
2022-08-20T06:37:30.022Z,22.36
2022-08-20T06:40:08.125Z,22.48
2022-08-20T06:42:36.503Z,22.76
2022-08-20T06:45:05.794Z,23.27
2022-08-20T06:47:34.473Z,24.32
2022-08-20T06:50:02.773Z,25.48
2022-08-20T06:52:52.282Z,26.08
2022-08-20T06:55:19.671Z,26.67
2022-08-20T06:57:48.461Z,27.30
2022-08-20T07:00:20.804Z,26.65
2022-08-20T07:02:49.182Z,26.18
2022-08-20T07:05:17.470Z,25.67
2022-08-20T07:07:47.441Z,25.02
2022-08-20T07:10:17.225Z,24.73
2022-08-20T07:12:46.903Z,24.59
2022-08-20T07:15:16.087Z,24.66
2022-08-20T07:17:50.815Z,25.68
2022-08-20T07:20:21.122Z,26.31
2022-08-20T07:22:49.810Z,26.76
2022-08-20T07:25:20.094Z,26.49
2022-08-20T07:27:49.493Z,26.17
2022-08-20T07:30:56.065Z,25.82
2022-08-20T07:33:28.197Z,25.87
2022-08-20T07:35:58.534Z,25.92
2022-08-20T07:38:29.228Z,25.77
2022-08-20T07:41:00.428Z,25.90
2022-08-20T07:43:28.940Z,26.37
2022-08-20T07:46:00.822Z,26.79
2022-08-20T07:48:31.990Z,26.59
2022-08-20T07:51:04.286Z,26.24
2022-08-20T07:53:37.807Z,26.27
2022-08-20T07:56:11.360Z,26.21
2022-08-20T07:58:49.749Z,26.57
2022-08-20T08:01:28.676Z,27.64
2022-08-20T08:03:59.025Z,28.32
2022-08-20T08:06:31.144Z,29.05
2022-08-20T08:09:11.638Z,30.49
2022-08-20T08:11:47.551Z,31.61
2022-08-20T08:14:23.463Z,32.13
2022-08-20T08:16:55.308Z,32.39
2022-08-20T08:19:25.079Z,32.88
2022-08-20T08:21:53.628Z,33.87
2022-08-20T08:24:26.545Z,34.36
2022-08-20T08:26:56.423Z,34.44
2022-08-20T08:29:24.678Z,34.36
2022-08-20T08:31:52.848Z,33.99
2022-08-20T08:34:21.036Z,32.46
2022-08-20T08:36:53.283Z,31.50
2022-08-20T08:39:22.251Z,30.59
2022-08-20T08:41:51.862Z,29.91
2022-08-20T08:44:30.379Z,29.37
2022-08-20T08:47:13.854Z,29.18
2022-08-20T08:49:42.081Z,29.17
2022-08-20T08:52:23.045Z,29.01
2022-08-20T08:54:56.671Z,28.95
2022-08-20T08:57:29.110Z,28.58
2022-08-20T09:00:04.186Z,28.57
2022-08-20T09:02:34.380Z,28.48
2022-08-20T09:05:13.367Z,28.40
2022-08-20T09:07:45.312Z,28.48
2022-08-20T09:10:13.567Z,28.36
2022-08-20T09:12:47.113Z,28.66
2022-08-20T09:15:16.706Z,28.63
2022-08-20T09:17:44.866Z,28.65
2022-08-20T09:20:13.101Z,28.75
2022-08-20T09:22:41.768Z,28.58
2022-08-20T09:25:10.233Z,28.44
2022-08-20T09:27:38.861Z,28.42
2022-08-20T09:30:10.829Z,28.31
2022-08-20T09:32:39.283Z,28.61
2022-08-20T09:35:09.532Z,29.11
2022-08-20T09:37:38.089Z,29.25
2022-08-20T09:40:08.850Z,29.26
2022-08-20T09:42:41.421Z,29.45
2022-08-20T09:45:11.583Z,29.79
2022-08-20T09:47:43.827Z,29.88
2022-08-20T09:50:25.112Z,29.86
2022-08-20T09:52:55.683Z,30.07
2022-08-20T09:55:37.237Z,30.30
2022-08-20T09:58:20.590Z,30.13
2022-08-20T10:00:48.793Z,30.12
2022-08-20T10:03:17.393Z,30.33
2022-08-20T10:05:45.721Z,30.55
2022-08-20T10:08:14.437Z,30.85
2022-08-20T10:10:42.716Z,30.88
2022-08-20T10:13:13.323Z,31.08
2022-08-20T10:15:43.784Z,30.88
2022-08-20T10:18:12.793Z,30.78
2022-08-20T10:20:44.001Z,30.78
2022-08-20T10:23:12.231Z,30.95
2022-08-20T10:25:44.155Z,30.82
2022-08-20T10:28:13.194Z,31.04
2022-08-20T10:30:41.468Z,31.14
2022-08-20T10:33:09.553Z,31.36
2022-08-20T10:35:37.729Z,31.52
2022-08-20T10:38:06.044Z,31.59
2022-08-20T10:40:35.421Z,31.45
2022-08-20T10:43:03.755Z,31.44
2022-08-20T10:45:32.006Z,31.43
2022-08-20T10:48:01.415Z,31.39
2022-08-20T10:50:32.084Z,31.43
2022-08-20T10:53:00.291Z,31.46
2022-08-20T10:55:28.499Z,31.58
2022-08-20T10:57:56.878Z,31.63
2022-08-20T11:00:25.504Z,31.87
2022-08-20T11:02:56.640Z,31.70
2022-08-20T11:05:24.888Z,31.63
2022-08-20T11:07:56.731Z,31.62
2022-08-20T11:10:36.711Z,31.75
2022-08-20T11:13:07.082Z,32.02
2022-08-20T11:15:39.695Z,32.33
2022-08-20T11:18:08.685Z,32.70
2022-08-20T11:20:37.045Z,32.63
2022-08-20T11:23:05.694Z,32.58
2022-08-20T11:25:34.154Z,32.60
2022-08-20T11:28:03.531Z,32.71
2022-08-20T11:30:35.579Z,32.73
2022-08-20T11:33:04.457Z,32.96
2022-08-20T11:35:49.585Z,33.32
2022-08-20T11:38:19.153Z,33.33
2022-08-20T11:40:47.439Z,33.38
2022-08-20T11:43:17.493Z,33.55
2022-08-20T11:45:51.579Z,33.74
2022-08-20T11:48:20.169Z,33.55
2022-08-20T11:50:49.771Z,34.00
2022-08-20T11:53:18.518Z,33.72
2022-08-20T11:55:47.951Z,33.40
2022-08-20T11:58:16.289Z,33.46
2022-08-20T12:00:44.613Z,33.37
2022-08-20T12:03:13.060Z,33.60
2022-08-20T12:05:44.417Z,33.51
2022-08-20T12:08:26.668Z,33.64
2022-08-20T12:10:58.213Z,34.08
2022-08-20T12:13:47.452Z,34.31
2022-08-20T12:16:20.194Z,34.42
2022-08-20T12:18:49.294Z,34.62
2022-08-20T12:21:20.705Z,34.77
2022-08-20T12:23:49.152Z,34.81
2022-08-20T12:26:17.935Z,34.81
2022-08-20T12:28:46.153Z,34.33
2022-08-20T12:31:14.405Z,34.55
2022-08-20T12:33:42.589Z,34.78
2022-08-20T12:36:11.092Z,35.15
2022-08-20T12:38:39.236Z,34.48
2022-08-20T12:41:07.441Z,34.29
2022-08-20T12:43:38.691Z,34.18
2022-08-20T12:46:06.980Z,34.59
2022-08-20T12:48:37.926Z,34.94
2022-08-20T12:51:06.241Z,35.31
2022-08-20T12:53:34.481Z,35.43
2022-08-20T12:56:05.248Z,35.47
2022-08-20T12:58:33.654Z,35.47
2022-08-20T13:01:01.922Z,35.16
2022-08-20T13:03:32.140Z,35.59
2022-08-20T13:06:02.087Z,35.84
2022-08-20T13:08:30.381Z,36.00
2022-08-20T13:10:58.571Z,36.13
2022-08-20T13:13:26.852Z,35.87
2022-08-20T13:15:55.088Z,35.64
2022-08-20T13:18:23.265Z,35.89
2022-08-20T13:20:51.440Z,36.43
2022-08-20T13:23:19.611Z,36.39
2022-08-20T13:25:47.733Z,36.28
2022-08-20T13:28:18.535Z,36.00
2022-08-20T13:30:46.832Z,35.80
2022-08-20T13:33:15.203Z,35.80
2022-08-20T13:35:43.415Z,36.26
2022-08-20T13:38:13.452Z,36.43
2022-08-20T13:40:41.720Z,36.57
2022-08-20T13:43:11.867Z,36.58
2022-08-20T13:45:41.550Z,36.62
2022-08-20T13:48:14.819Z,36.76
2022-08-20T13:50:47.198Z,36.17
2022-08-20T13:53:18.268Z,35.62
2022-08-20T13:55:47.137Z,35.91
2022-08-20T13:58:18.091Z,36.06
2022-08-20T14:00:46.616Z,36.19
2022-08-20T14:03:19.763Z,36.18
2022-08-20T14:05:48.509Z,36.46
2022-08-20T14:08:22.808Z,35.68
2022-08-20T14:10:51.898Z,35.67
2022-08-20T14:13:23.442Z,35.45
2022-08-20T14:15:52.488Z,35.20
2022-08-20T14:18:20.913Z,35.04
2022-08-20T14:20:49.239Z,34.86
2022-08-20T14:23:17.438Z,34.65
2022-08-20T14:25:47.968Z,34.20
2022-08-20T14:28:22.491Z,33.85
2022-08-20T14:30:52.659Z,33.68
2022-08-20T14:33:23.763Z,33.49
2022-08-20T14:35:53.192Z,33.16
2022-08-20T14:38:21.751Z,33.34
2022-08-20T14:40:50.475Z,33.28
2022-08-20T14:43:18.975Z,33.11
2022-08-20T14:45:47.157Z,33.04
2022-08-20T14:48:15.451Z,32.49
2022-08-20T14:50:43.679Z,32.17
2022-08-20T14:53:11.783Z,32.08
2022-08-20T14:55:40.219Z,32.00
2022-08-20T14:58:10.338Z,31.71
2022-08-20T15:00:39.885Z,31.34
2022-08-20T15:03:08.280Z,31.00
2022-08-20T15:05:39.515Z,30.87
2022-08-20T15:08:10.446Z,30.82
2022-08-20T15:10:39.461Z,30.73
2022-08-20T15:13:08.664Z,30.46
2022-08-20T15:15:37.053Z,30.32
2022-08-20T15:18:05.356Z,30.19
2022-08-20T15:20:35.431Z,30.08
2022-08-20T15:23:04.903Z,30.06
2022-08-20T15:25:36.062Z,29.98
2022-08-20T15:28:08.621Z,29.87
2022-08-20T15:30:39.640Z,29.88
2022-08-20T15:33:09.271Z,29.95
2022-08-20T15:35:37.630Z,30.01
2022-08-20T15:38:06.022Z,30.06
2022-08-20T15:40:34.510Z,30.05
2022-08-20T15:43:04.782Z,30.01
2022-08-20T15:45:33.727Z,29.93
2022-08-20T15:48:20.843Z,29.96
2022-08-20T15:50:54.874Z,30.05
2022-08-20T15:53:46.970Z,30.10
2022-08-20T15:56:47.508Z,30.15
2022-08-20T15:59:40.504Z,30.23
2022-08-20T16:02:35.560Z,30.33
2022-08-20T16:05:14.514Z,30.39
2022-08-20T16:08:04.715Z,30.32
2022-08-20T16:11:00.654Z,30.19
2022-08-20T16:13:39.610Z,30.11
2022-08-20T16:16:36.724Z,30.09
2022-08-20T16:19:07.458Z,30.02
2022-08-20T16:21:41.106Z,29.90
2022-08-20T16:24:12.814Z,29.99
2022-08-20T16:26:57.981Z,30.07
2022-08-20T16:29:43.404Z,30.08
2022-08-20T16:32:26.256Z,30.02
2022-08-20T16:35:10.311Z,29.90
2022-08-20T16:38:21.377Z,29.76
2022-08-20T16:40:57.004Z,29.51
2022-08-20T16:43:35.037Z,29.26
2022-08-20T16:46:18.634Z,29.02
2022-08-20T16:48:58.302Z,28.80
2022-08-20T16:51:33.294Z,28.60
2022-08-20T16:54:01.682Z,28.49
2022-08-20T16:56:45.117Z,28.43
2022-08-20T16:59:27.035Z,28.48
2022-08-20T17:02:04.528Z,28.51
2022-08-20T17:04:46.264Z,28.54
2022-08-20T17:07:57.304Z,28.60
2022-08-20T17:10:36.131Z,28.58
2022-08-20T17:13:20.525Z,28.52
2022-08-20T17:16:07.687Z,28.48
2022-08-20T17:18:38.517Z,28.45
2022-08-20T17:21:33.130Z,28.40
2022-08-20T17:24:16.516Z,28.31
2022-08-20T17:26:56.268Z,28.24
2022-08-20T17:29:38.370Z,28.16
2022-08-20T17:32:28.032Z,28.01
2022-08-20T17:35:00.395Z,27.86
2022-08-20T17:37:33.480Z,27.76
2022-08-20T17:40:40.097Z,27.59
2022-08-20T17:43:31.187Z,27.46
2022-08-20T17:46:03.029Z,27.34
2022-08-20T17:48:41.911Z,27.17
2022-08-20T17:51:22.334Z,26.97
2022-08-20T17:54:12.190Z,26.85
2022-08-20T17:56:43.778Z,26.76
2022-08-20T17:59:44.414Z,26.72
2022-08-20T18:02:24.847Z,26.66
2022-08-20T18:04:55.194Z,26.60
2022-08-20T18:07:33.990Z,26.51
2022-08-20T18:10:20.676Z,26.45
2022-08-20T18:12:55.015Z,26.36
2022-08-20T18:15:25.762Z,26.28
2022-08-20T18:18:12.033Z,26.18
2022-08-20T18:21:25.324Z,26.10
2022-08-20T18:24:00.906Z,25.95
2022-08-20T18:27:08.965Z,25.83
2022-08-20T18:29:41.127Z,25.72
2022-08-20T18:32:30.461Z,25.62
2022-08-20T18:35:33.688Z,25.51
2022-08-20T18:38:16.432Z,25.36
2022-08-20T18:40:44.579Z,25.28
2022-08-20T18:43:16.313Z,25.21
2022-08-20T18:45:44.453Z,25.14
2022-08-20T18:48:22.510Z,25.08
2022-08-20T18:50:56.293Z,25.03
2022-08-20T18:53:33.992Z,25.03
2022-08-20T18:56:11.177Z,24.99
2022-08-20T18:59:00.681Z,24.96
2022-08-20T19:01:34.193Z,24.93
2022-08-20T19:04:22.163Z,24.88
2022-08-20T19:06:58.992Z,24.91
2022-08-20T19:09:46.763Z,24.96
2022-08-20T19:12:57.268Z,24.97
2022-08-20T19:15:26.191Z,24.92
2022-08-20T19:18:07.283Z,24.88
2022-08-20T19:20:38.708Z,24.78
2022-08-20T19:23:23.372Z,24.69
2022-08-20T19:26:03.245Z,24.59
2022-08-20T19:28:42.432Z,24.48
2022-08-20T19:31:26.052Z,24.39
2022-08-20T19:34:02.136Z,24.34
2022-08-20T19:36:31.363Z,24.30
2022-08-20T19:39:12.810Z,24.23
2022-08-20T19:42:01.635Z,24.12
2022-08-20T19:44:32.515Z,24.08
2022-08-20T19:47:02.126Z,24.00
2022-08-20T19:49:58.952Z,23.87
2022-08-20T19:52:30.301Z,23.83
2022-08-20T19:55:03.325Z,23.73
2022-08-20T19:57:33.644Z,23.63
2022-08-20T20:00:13.320Z,23.49
2022-08-20T20:02:42.059Z,23.38
2022-08-20T20:05:10.928Z,23.33
2022-08-20T20:07:52.042Z,23.23
2022-08-20T20:10:36.685Z,23.20
2022-08-20T20:13:14.794Z,23.13
2022-08-20T20:15:43.824Z,23.18
2022-08-20T20:18:13.748Z,23.16
2022-08-20T20:20:57.438Z,23.05
2022-08-20T20:23:38.515Z,22.95
2022-08-20T20:26:19.909Z,22.90
2022-08-20T20:28:52.940Z,22.74
2022-08-20T20:31:33.365Z,22.71
2022-08-20T20:34:09.506Z,22.69
2022-08-20T20:36:44.164Z,22.57
2022-08-20T20:39:34.262Z,22.50
2022-08-20T20:42:04.885Z,22.47
2022-08-20T20:44:37.608Z,22.45
2022-08-20T20:47:20.852Z,22.47
2022-08-20T20:50:25.597Z,22.40
2022-08-20T20:52:57.407Z,22.36
2022-08-20T20:55:32.648Z,22.29
2022-08-20T20:58:02.704Z,22.24
2022-08-20T21:00:33.587Z,22.19
2022-08-20T21:03:03.802Z,22.16
2022-08-20T21:05:33.216Z,22.05
2022-08-20T21:08:04.004Z,22.02
2022-08-20T21:10:34.923Z,21.97
2022-08-20T21:13:06.626Z,21.94
2022-08-20T21:15:36.352Z,22.01
2022-08-20T21:18:06.997Z,21.98
2022-08-20T21:20:35.742Z,22.01
2022-08-20T21:23:05.123Z,21.97
2022-08-20T21:25:34.221Z,21.93
2022-08-20T21:28:02.610Z,21.96
2022-08-20T21:30:31.424Z,21.92
2022-08-20T21:32:59.904Z,21.86
2022-08-20T21:35:28.480Z,21.84
2022-08-20T21:37:56.639Z,21.83
2022-08-20T21:40:28.324Z,21.85
2022-08-20T21:42:57.286Z,21.88
2022-08-20T21:45:28.382Z,21.94
2022-08-20T21:47:57.301Z,21.96
2022-08-20T21:50:26.164Z,22.03
2022-08-20T21:52:55.176Z,22.04
2022-08-20T21:55:33.048Z,22.09
2022-08-20T21:58:05.047Z,22.03
2022-08-20T22:00:54.639Z,22.02
2022-08-20T22:03:30.275Z,21.97
2022-08-20T22:06:00.931Z,21.94
2022-08-20T22:08:29.838Z,21.78
2022-08-20T22:10:59.971Z,21.67
2022-08-20T22:13:32.665Z,21.66
2022-08-20T22:16:03.957Z,21.62
2022-08-20T22:18:32.691Z,21.61
2022-08-20T22:21:01.713Z,21.37
2022-08-20T22:23:29.881Z,21.28
2022-08-20T22:25:58.093Z,21.30
2022-08-20T22:28:26.681Z,21.31
2022-08-20T22:30:55.028Z,21.31
2022-08-20T22:33:24.112Z,21.32
2022-08-20T22:35:55.061Z,21.39
2022-08-20T22:38:24.700Z,21.36
2022-08-20T22:40:54.103Z,21.33
2022-08-20T22:43:23.296Z,21.31
2022-08-20T22:45:55.704Z,21.31
2022-08-20T22:48:24.095Z,21.31
2022-08-20T22:50:56.260Z,21.31
2022-08-20T22:53:26.315Z,21.38
2022-08-20T22:55:54.880Z,21.31
2022-08-20T22:58:30.916Z,21.24
2022-08-20T23:01:02.246Z,21.12
2022-08-20T23:03:39.675Z,21.17
2022-08-20T23:06:10.359Z,21.16
2022-08-20T23:08:39.117Z,21.06
2022-08-20T23:11:07.328Z,21.00
2022-08-20T23:13:35.590Z,20.93
2022-08-20T23:16:07.083Z,20.88
2022-08-20T23:18:35.540Z,20.91
2022-08-20T23:21:04.009Z,20.89
2022-08-20T23:23:32.359Z,20.92
2022-08-20T23:26:01.414Z,20.90
2022-08-20T23:28:29.814Z,20.99
2022-08-20T23:30:58.207Z,20.99
2022-08-20T23:33:26.422Z,21.00
2022-08-20T23:35:59.307Z,21.10
2022-08-20T23:38:27.571Z,21.02
2022-08-20T23:40:55.759Z,21.06
2022-08-20T23:43:24.160Z,20.98
2022-08-20T23:45:52.463Z,20.84
2022-08-20T23:48:21.087Z,20.78
2022-08-20T23:50:49.235Z,20.74
2022-08-20T23:53:20.492Z,20.72
2022-08-20T23:55:48.670Z,20.76
2022-08-20T23:58:16.823Z,20.75
